Time;durP1;ratioP1;P1;durP2;ratioP2;P2;SDS_P1;SDS_P2;PMS_P1;PMS_P2;Temp;Humidity;BMP_temperature;BMP_pressure;BME280_temperature;BME280_humidity;BME280_pressure;Samples;Min_cycle;Max_cycle;Signal;HPM_P1;HPM_P2
2022/05/11 00:01:30;;;;;;;4.20;1.40;;;;;;;10.19;38.40;99002.88;4991295;28;20513;-40
2022/05/11 00:03:57;;;;;;;4.20;1.70;;;;;;;10.19;38.24;99005.47;4992272;28;20062;-40
2022/05/11 00:06:23;;;;;;;2.00;1.05;;;;;;;10.18;38.12;99005.53;4990944;28;20053;-41
2022/05/11 00:08:49;;;;;;;4.22;1.20;;;;;;;10.16;37.83;98997.78;4991495;28;20065;-40
2022/05/11 00:11:15;;;;;;;4.03;1.10;;;;;;;10.16;38.28;99000.38;4978221;28;20518;-43
2022/05/11 00:13:41;;;;;;;4.72;1.00;;;;;;;10.07;38.26;98985.16;4992460;28;20042;-41
2022/05/11 00:16:07;;;;;;;3.45;1.17;;;;;;;10.02;38.50;98976.75;4991111;28;20045;-40
2022/05/11 00:18:33;;;;;;;2.33;1.00;;;;;;;10.00;38.15;98978.53;4992288;28;20038;-43
2022/05/11 00:20:59;;;;;;;2.38;0.90;;;;;;;9.94;38.17;98971.06;4990429;28;20104;-43
2022/05/11 00:23:24;;;;;;;5.63;1.00;;;;;;;10.01;38.43;98972.44;4990910;28;20506;-40
2022/05/11 00:25:50;;;;;;;3.80;1.30;;;;;;;10.05;38.35;98984.38;4991168;28;20429;-40
2022/05/11 00:28:16;;;;;;;1.67;1.13;;;;;;;10.04;38.45;98985.31;4985749;28;20049;-41
2022/05/11 00:30:42;;;;;;;4.60;1.40;;;;;;;10.04;38.56;98985.31;4981759;28;20046;-42
2022/05/11 00:33:15;;;;;;;3.45;1.00;;;;;;;10.04;38.62;98987.91;4988322;28;20062;-41
2022/05/11 00:35:43;;;;;;;1.88;0.98;;;;;;;10.00;38.62;98981.16;4991645;28;20096;-42
2022/05/11 00:38:09;;;;;;;2.03;0.90;;;;;;;9.98;38.68;98982.97;4983793;28;20529;-41
2022/05/11 00:40:44;;;;;;;1.98;0.90;;;;;;;9.93;38.49;98981.50;4982984;28;20144;-41
2022/05/11 00:43:09;;;;;;;2.88;1.20;;;;;;;9.93;38.73;98976.28;4990669;28;20045;-41
2022/05/11 00:45:45;;;;;;;2.95;1.20;;;;;;;9.90;38.85;98979.84;4990167;28;20046;-43
2022/05/11 00:50:58;;;;;;;1.65;1.00;;;;;;;9.88;39.01;98970.47;4971617;28;20053;-40
2022/05/11 00:53:25;;;;;;;2.83;1.02;;;;;;;9.86;38.69;98986.09;4991125;28;20042;-42
2022/05/11 00:55:54;;;;;;;2.15;0.90;;;;;;;9.83;38.79;98975.00;4989722;28;20544;-42
2022/05/11 00:58:32;;;;;;;3.20;0.98;;;;;;;9.77;38.94;98976.09;4990336;28;20153;-41
2022/05/11 01:00:57;;;;;;;4.55;1.05;;;;;;;9.75;39.11;98985.69;4991455;28;20120;-42
2022/05/11 01:03:29;;;;;;;2.20;0.90;;;;;;;9.72;38.82;98986.69;4989958;28;20078;-40
2022/05/11 01:05:55;;;;;;;3.28;1.30;;;;;;;9.64;38.95;98961.94;4990110;28;20146;-40
2022/05/11 01:08:21;;;;;;;2.17;1.10;;;;;;;9.67;39.20;98980.84;4990121;28;20062;-41
2022/05/11 01:10:48;;;;;;;1.48;0.90;;;;;;;9.57;39.16;98965.72;4990048;28;20050;-41
2022/05/11 01:13:16;;;;;;;2.28;0.90;;;;;;;9.64;38.86;98961.94;4989747;28;20046;-40
2022/05/11 01:15:43;;;;;;;4.80;1.13;;;;;;;9.68;39.13;98977.31;4990975;28;20030;-42
2022/05/11 01:18:09;;;;;;;3.25;0.80;;;;;;;9.72;39.12;98978.91;4990069;28;20050;-41
2022/05/11 01:20:36;;;;;;;3.13;1.10;;;;;;;9.75;39.07;98973.56;4991119;28;20423;-40
2022/05/11 01:23:03;;;;;;;3.00;0.90;;;;;;;9.79;38.90;98980.31;4989622;28;20042;-41
2022/05/11 01:25:30;;;;;;;2.15;0.95;;;;;;;9.84;39.21;98974.91;4990111;28;20096;-41
2022/05/11 01:28:11;;;;;;;2.38;1.38;;;;;;;9.87;38.72;98974.81;4979207;28;20498;-41
2022/05/11 01:30:49;;;;;;;2.40;0.80;;;;;;;9.91;38.81;98973.75;4990689;28;20422;-40
2022/05/11 01:33:18;;;;;;;2.97;0.82;;;;;;;9.94;39.25;98975.41;4988733;28;20458;-41
2022/05/11 01:35:59;;;;;;;;;;;;;;;9.95;38.73;98977.91;4991222;28;20070;-40
2022/05/11 01:38:34;;;;;;;2.63;0.88;;;;;;;9.95;38.29;98967.53;4989350;28;19925;-42
2022/05/11 01:41:01;;;;;;;2.35;0.70;;;;;;;9.98;38.51;98961.38;4990875;28;20088;-41
2022/05/11 01:43:29;;;;;;;0.88;0.70;;;;;;;10.00;38.43;98957.78;4989890;28;20098;-41
2022/05/11 01:45:54;;;;;;;7.70;2.30;;;;;;;10.03;38.75;98954.22;4990646;28;20085;-41
2022/05/11 01:48:21;;;;;;;1.48;1.20;;;;;;;10.06;38.54;98962.69;4988687;28;20054;-40
2022/05/11 01:50:46;;;;;;;1.10;0.90;;;;;;;10.09;38.51;98956.53;4989653;28;20042;-41
2022/05/11 01:53:13;;;;;;;5.13;1.10;;;;;;;10.13;38.59;98952.91;4991102;28;20050;-40
2022/05/11 01:55:39;;;;;;;1.88;0.75;;;;;;;10.16;38.34;98956.22;4990537;28;20547;-40
2022/05/11 01:58:08;;;;;;;3.55;0.95;;;;;;;10.11;37.91;98945.16;4990757;28;20422;-41
2022/05/11 02:00:35;;;;;;;3.10;1.00;;;;;;;10.07;38.26;98932.38;4991293;28;20039;-41
2022/05/11 02:03:02;;;;;;;6.30;0.90;;;;;;;10.19;37.79;98942.28;4989474;28;20133;-40
2022/05/11 02:08:12;;;;;;;3.92;0.90;;;;;;;10.34;37.84;98951.13;4994153;28;20049;-40
2022/05/11 02:10:37;;;;;;;2.13;1.02;;;;;;;10.29;37.85;98947.91;4993269;28;20406;-40
2022/05/11 02:13:03;;;;;;;11.73;5.53;;;;;;;10.38;37.17;98960.47;4994591;28;20042;-41
2022/05/11 02:15:29;;;;;;;3.80;2.67;;;;;;;10.23;37.23;98922.19;4994007;28;20038;-41
2022/05/11 02:17:55;;;;;;;2.60;1.20;;;;;;;10.43;37.29;98956.75;4994494;28;20038;-41
2022/05/11 02:20:21;;;;;;;2.17;1.10;;;;;;;10.49;37.86;98960.81;4977244;28;20046;-41
2022/05/11 02:22:48;;;;;;;5.47;1.17;;;;;;;10.53;37.41;98962.38;4993948;28;20046;-41
2022/05/11 02:25:18;;;;;;;5.80;1.08;;;;;;;10.56;37.22;98957.03;4992719;28;20133;-41
2022/05/11 02:27:45;;;;;;;4.32;1.20;;;;;;;10.60;37.35;98956.84;4993604;28;20142;-40
2022/05/11 02:30:15;;;;;;;2.63;1.20;;;;;;;10.65;37.18;98955.78;4992925;28;20042;-41
2022/05/11 02:32:41;;;;;;;4.85;1.20;;;;;;;10.66;37.01;98953.09;4992777;28;20042;-41
2022/05/11 02:35:14;;;;;;;6.25;1.30;;;;;;;10.69;36.55;98947.75;4992779;28;20514;-42
2022/05/11 02:37:46;;;;;;;5.53;1.10;;;;;;;10.72;36.83;98946.78;4993323;28;20506;-42
2022/05/11 02:40:14;;;;;;;3.20;1.42;;;;;;;10.74;36.64;98942.34;4993865;28;20136;-41
2022/05/11 02:42:40;;;;;;;3.75;1.40;;;;;;;10.76;36.96;98945.72;4992643;28;20061;-42
2022/05/11 02:45:07;;;;;;;2.65;0.90;;;;;;;10.81;36.43;98933.34;4992684;28;20050;-42
2022/05/11 02:47:32;;;;;;;2.83;1.00;;;;;;;10.82;36.21;98943.69;4993774;28;20101;-41
2022/05/11 02:49:58;;;;;;;1.58;0.98;;;;;;;10.87;36.41;98946.91;4993941;28;20042;-41
2022/05/11 02:52:24;;;;;;;2.10;0.88;;;;;;;10.92;36.47;98950.13;4993099;28;20041;-42
2022/05/11 02:54:49;;;;;;;2.97;0.90;;;;;;;10.94;35.98;98950.88;4991898;28;20057;-42
2022/05/11 02:57:16;;;;;;;2.75;1.02;;;;;;;11.01;36.77;98951.44;4993099;28;20038;-41
2022/05/11 02:59:43;;;;;;;2.45;1.00;;;;;;;11.03;36.13;98947.88;4993710;28;20474;-41
2022/05/11 03:02:09;;;;;;;1.63;0.98;;;;;;;11.09;36.52;98941.53;4993686;28;20154;-41
2022/05/11 03:04:35;;;;;;;5.13;1.02;;;;;;;11.13;36.15;98937.84;4993297;28;20541;-42
2022/05/11 03:07:01;;;;;;;1.67;0.93;;;;;;;11.17;36.40;98943.75;4991017;28;20069;-40
2022/05/11 03:09:26;;;;;;;2.53;0.73;;;;;;;11.20;36.53;98944.44;4976328;28;20034;-42
2022/05/11 03:11:52;;;;;;;1.55;0.88;;;;;;;11.14;36.08;98928.28;4993510;28;20038;-41
2022/05/11 03:14:18;;;;;;;2.80;0.85;;;;;;;11.28;36.03;98942.31;4991540;28;20537;-41
2022/05/11 03:16:44;;;;;;;1.30;0.75;;;;;;;11.35;35.96;98948.91;4985707;28;20426;-41
2022/05/11 03:19:10;;;;;;;5.18;0.80;;;;;;;11.40;36.21;98946.91;4991905;28;20050;-41
2022/05/11 03:21:36;;;;;;;7.78;0.90;;;;;;;11.48;36.41;98949.13;4992244;28;20046;-40
2022/05/11 03:24:02;;;;;;;2.92;1.13;;;;;;;11.53;35.55;98944.53;4993028;28;20133;-41
2022/05/11 03:26:28;;;;;;;2.83;0.68;;;;;;;11.52;35.98;98942.00;4992904;28;20129;-41
2022/05/11 03:28:53;;;;;;;2.47;0.82;;;;;;;11.60;35.80;98943.31;4992051;28;20148;-41
2022/05/11 03:31:19;;;;;;;2.25;0.73;;;;;;;11.63;35.98;98944.91;4992745;28;20046;-42
2022/05/11 03:36:30;;;;;;;3.17;0.90;;;;;;;11.75;35.77;98947.78;4991581;28;20147;-42
2022/05/11 03:38:56;;;;;;;1.65;0.70;;;;;;;11.71;35.63;98924.56;4992531;28;20423;-42
2022/05/11 03:41:22;;;;;;;2.90;1.20;;;;;;;11.82;35.47;98943.94;4990635;28;20510;-42
2022/05/11 03:43:48;;;;;;;5.93;1.02;;;;;;;11.84;35.69;98930.84;4991817;28;20498;-41
2022/05/11 03:46:14;;;;;;;7.15;1.02;;;;;;;11.92;35.46;98940.88;4991079;28;20057;-41
2022/05/11 03:48:40;;;;;;;2.33;1.00;;;;;;;11.91;35.61;98931.38;4971426;28;20054;-41
2022/05/11 03:51:06;;;;;;;2.58;1.02;;;;;;;11.99;35.43;98943.06;4979609;28;20046;-41
2022/05/11 03:53:33;;;;;;;2.35;0.90;;;;;;;12.02;35.01;98942.91;4974409;28;20077;-41
2022/05/11 03:55:58;;;;;;;3.00;1.00;;;;;;;12.04;35.10;98941.06;4992344;28;20149;-40
2022/05/11 03:58:24;;;;;;;3.50;1.45;;;;;;;12.09;35.08;98949.47;4990892;28;20117;-42
2022/05/11 04:00:51;;;;;;;8.35;1.00;;;;;;;12.06;35.42;98935.78;4992548;28;20042;-42
2022/05/11 04:03:17;;;;;;;4.45;1.10;;;;;;;12.14;35.31;98934.44;4991985;28;20438;-42
2022/05/11 04:05:42;;;;;;;10.70;1.33;;;;;;;12.14;35.12;98939.66;4992373;28;20049;-42
2022/05/11 04:08:09;;;;;;;7.35;1.40;;;;;;;12.14;35.42;98939.66;4991457;28;20034;-41
2022/05/11 04:10:35;;;;;;;5.82;1.60;;;;;;;12.14;35.31;98929.22;4990990;28;20502;-41
2022/05/11 04:13:02;;;;;;;5.53;1.52;;;;;;;12.20;35.16;98944.53;4991862;28;20046;-41
2022/05/11 04:15:28;;;;;;;5.63;1.00;;;;;;;12.20;35.30;98938.50;4992478;28;20143;-42
2022/05/11 04:17:53;;;;;;;5.43;1.48;;;;;;;12.26;35.44;98944.22;4991627;28;20125;-40
2022/05/11 04:20:19;;;;;;;4.05;1.20;;;;;;;12.31;35.20;98943.97;4991888;28;20046;-42
2022/05/11 04:22:45;;;;;;;3.90;2.03;;;;;;;12.31;35.01;98928.34;4992301;28;20042;-40
2022/05/11 04:25:15;;;;;;;3.63;1.50;;;;;;;12.37;34.96;98925.41;4990763;28;20481;-41
2022/05/11 04:27:45;;;;;;;9.70;1.92;;;;;;;12.46;34.73;98937.94;4988622;28;20418;-41
2022/05/11 04:30:13;;;;;;;6.43;1.70;;;;;;;12.51;34.66;98935.13;4972551;28;20510;-42
2022/05/11 04:32:40;;;;;;;5.95;1.63;;;;;;;12.41;34.43;98905.22;4978800;28;20042;-42
2022/05/11 04:35:07;;;;;;;3.78;1.50;;;;;;;12.61;34.86;98925.88;4991233;28;20037;-42
2022/05/11 04:37:32;;;;;;;11.13;2.10;;;;;;;12.69;34.35;98936.69;4974431;28;20133;-40
2022/05/11 04:39:58;;;;;;;7.75;2.10;;;;;;;12.76;34.53;98927.63;4990367;28;20134;-41
2022/05/11 04:42:24;;;;;;;10.40;2.60;;;;;;;12.68;34.19;98914.16;4991617;28;20078;-41
2022/05/11 04:44:49;;;;;;;12.13;1.65;;;;;;;12.90;34.15;98929.47;4990309;28;20514;-42
2022/05/11 04:47:19;;;;;;;7.93;2.30;;;;;;;12.93;33.81;98918.84;4989600;28;20482;-40
2022/05/11 04:49:45;;;;;;;6.97;1.73;;;;;;;13.00;34.13;98925.41;4989939;28;20429;-41
2022/05/11 04:52:14;;;;;;;5.32;1.15;;;;;;;13.07;33.59;98930.22;4990850;28;20034;-41
2022/05/11 04:54:46;;;;;;;3.55;1.40;;;;;;;13.14;33.63;98923.72;4989460;28;20092;-41
2022/05/11 04:57:12;;;;;;;2.08;1.17;;;;;;;13.25;33.56;98923.13;4989165;28;20125;-41
2022/05/11 04:59:41;;;;;;;2.80;1.55;;;;;;;13.34;33.26;98919.16;4989173;28;20598;-41
2022/05/11 05:02:14;;;;;;;2.72;1.23;;;;;;;13.45;33.09;98927.22;4988254;28;20050;-42
2022/05/11 05:04:40;;;;;;;2.80;1.20;;;;;;;13.50;32.88;98920.75;4987862;28;20059;-41
2022/05/11 05:07:05;;;;;;;2.45;1.10;;;;;;;13.62;32.65;98916.59;4990565;28;20053;-42
2022/05/11 05:09:31;;;;;;;12.38;2.30;;;;;;;13.74;32.59;98920.25;4972742;28;20053;-43
2022/05/11 05:11:57;;;;;;;12.45;1.50;;;;;;;13.83;32.54;98914.47;4990335;28;20057;-41
2022/05/11 05:14:23;;;;;;;5.25;1.10;;;;;;;13.80;32.65;98905.06;4989421;28;20038;-42
2022/05/11 05:16:48;;;;;;;3.85;1.30;;;;;;;13.97;32.39;98920.56;4988696;28;20105;-41
2022/05/11 05:19:14;;;;;;;2.80;0.88;;;;;;;14.06;32.49;98926.19;4988388;28;20452;-40
2022/05/11 05:21:40;;;;;;;3.05;1.95;;;;;;;14.11;31.94;98924.97;4987673;28;20050;-42
2022/05/11 05:24:07;;;;;;;2.75;0.82;;;;;;;14.09;31.78;98903.31;4989020;28;20065;-41
2022/05/11 05:26:35;;;;;;;5.78;1.27;;;;;;;14.30;31.28;98903.75;4988540;28;20046;-40
2022/05/11 05:31:45;;;;;;;4.13;1.20;;;;;;;14.66;31.20;98911.09;4969667;28;20050;-41
2022/05/11 05:34:12;;;;;;;3.38;1.20;;;;;;;14.83;31.04;98903.88;4976952;28;20054;-41
2022/05/11 05:36:38;;;;;;;3.03;1.38;;;;;;;15.03;30.91;98894.72;4988723;28;20042;-41
2022/05/11 05:39:05;;;;;;;3.78;1.08;;;;;;;15.17;30.38;98904.31;4990595;28;20046;-41
2022/05/11 05:41:31;;;;;;;6.30;1.20;;;;;;;15.25;29.84;98892.38;4995179;28;20049;-40
2022/05/11 05:43:56;;;;;;;3.42;1.20;;;;;;;15.32;29.79;98889.38;4994991;28;20053;-40
2022/05/11 05:46:24;;;;;;;4.10;1.45;;;;;;;15.58;29.29;98883.25;4976790;28;20042;-41
2022/05/11 05:48:50;;;;;;;5.28;1.65;;;;;;;15.78;29.65;98892.38;4994373;28;20128;-42
2022/05/11 05:51:17;;;;;;;2.88;1.10;;;;;;;15.94;28.80;98893.03;4993710;28;20046;-41
2022/05/11 05:53:44;;;;;;;1.55;0.90;;;;;;;15.99;28.53;98875.19;4993142;28;20042;-41
2022/05/11 05:56:11;;;;;;;4.97;1.13;;;;;;;16.27;28.54;98887.22;4971079;28;20046;-45
2022/05/11 05:58:37;;;;;;;2.67;1.10;;;;;;;16.35;28.17;98871.78;4987368;28;20044;-43
2022/05/11 06:01:04;;;;;;;6.28;1.00;;;;;;;16.41;28.14;98871.34;4976807;28;20042;-42
2022/05/11 06:03:31;;;;;;;1.73;1.00;;;;;;;16.62;27.53;98879.50;4975558;28;20521;-43
2022/05/11 06:05:57;;;;;;;1.70;1.00;;;;;;;16.79;27.17;98879.97;4992874;28;20050;-41
2022/05/11 06:08:23;;;;;;;4.82;1.73;;;;;;;17.01;27.41;98878.41;4993213;28;20049;-43
2022/05/11 06:10:54;;;;;;;6.18;1.10;;;;;;;17.22;26.89;98877.63;4992516;28;20532;-44
2022/05/11 06:13:22;;;;;;;5.35;1.17;;;;;;;17.43;26.70;98872.56;4993071;28;20046;-40
2022/05/11 06:15:53;;;;;;;4.90;1.30;;;;;;;17.57;26.42;98876.78;4991646;28;20034;-41
2022/05/11 06:18:20;;;;;;;4.53;1.20;;;;;;;17.62;26.00;98854.50;4987759;28;20488;-42
2022/05/11 06:20:51;;;;;;;16.38;2.38;;;;;;;17.85;25.76;98865.88;4976380;28;20429;-47
2022/05/11 06:23:17;;;;;;;3.72;1.33;;;;;;;18.08;25.19;98861.47;4993554;28;20062;-44
2022/05/11 06:25:43;;;;;;;21.95;5.15;;;;;;;18.49;24.86;98858.19;4993318;28;20038;-42
2022/05/11 06:28:09;;;;;;;7.30;1.00;;;;;;;18.67;24.08;98855.91;4987316;28;20425;-44
2022/05/11 06:30:35;;;;;;;12.52;1.60;;;;;;;18.75;24.29;98858.75;4990994;28;20038;-44
2022/05/11 06:33:02;;;;;;;17.05;1.90;;;;;;;19.11;23.76;98853.13;4990476;28;20042;-39
2022/05/11 06:35:29;;;;;;;8.13;1.30;;;;;;;19.92;22.59;98856.88;4993006;28;20146;-47
2022/05/11 06:37:55;;;;;;;13.57;1.67;;;;;;;20.32;22.46;98859.56;4992140;28;20422;-42
2022/05/11 06:40:22;;;;;;;7.93;1.20;;;;;;;20.23;22.34;98845.34;4991643;28;20518;-40
2022/05/11 06:42:50;;;;;;;7.95;1.20;;;;;;;20.27;22.16;98844.94;4992121;28;20038;-42
2022/05/11 06:45:16;;;;;;;12.02;1.52;;;;;;;20.24;22.23;98852.28;4991752;28;20114;-42
2022/05/11 06:47:42;;;;;;;6.18;1.55;;;;;;;20.61;21.64;98834.91;4992126;28;20058;-42
2022/05/11 06:50:09;;;;;;;4.15;1.40;;;;;;;21.37;20.84;98850.94;4990522;28;20710;-41
2022/05/11 06:52:35;;;;;;;10.13;1.92;;;;;;;22.47;19.79;98838.75;4990654;28;20038;-43
2022/05/11 07:00:31;;;;;;;8.90;1.20;;;;;;;26.40;15.90;98824.66;4990907;28;20042;-42
2022/05/11 07:02:57;;;;;;;7.40;1.20;;;;;;;27.11;15.35;98834.22;4991121;28;20120;-41
2022/05/11 07:05:23;;;;;;;4.85;1.30;;;;;;;27.72;14.83;98814.53;4993518;28;20034;-42
2022/05/11 07:07:50;;;;;;;14.05;1.80;;;;;;;28.66;14.64;98836.97;4993355;28;20049;-42
2022/05/11 07:10:16;;;;;;;15.27;2.25;;;;;;;29.31;14.04;98828.00;4992633;28;20493;-42
2022/05/11 07:12:48;;;;;;;7.35;1.70;;;;;;;29.97;13.53;98831.19;4993414;28;20046;-42
2022/05/11 07:15:20;;;;;;;7.70;1.50;;;;;;;30.33;12.97;98839.84;4991584;28;20129;-41
2022/05/11 07:17:54;;;;;;;5.72;1.33;;;;;;;30.60;12.75;98838.13;4992977;28;20121;-41
2022/05/11 07:20:28;;;;;;;5.43;1.58;;;;;;;30.83;12.40;98845.84;4991669;28;20039;-41
2022/05/11 07:22:54;;;;;;;4.30;1.40;;;;;;;31.08;12.28;98830.84;4992702;28;20042;-42
2022/05/11 07:25:22;;;;;;;8.70;1.52;;;;;;;31.42;11.60;98840.56;4990831;28;20042;-43
2022/05/11 07:27:48;;;;;;;3.53;1.80;;;;;;;31.55;11.68;98848.66;4990940;28;21005;-41
2022/05/11 07:30:17;;;;;;;3.97;1.38;;;;;;;31.72;11.44;98843.72;4974304;28;20049;-42
2022/05/11 07:32:42;;;;;;;6.50;1.75;;;;;;;32.31;11.38;98840.91;4989655;28;20073;-41
2022/05/11 07:35:09;;;;;;;8.25;1.88;;;;;;;32.61;11.02;98828.53;4990613;28;20065;-43
2022/05/11 07:37:34;;;;;;;2.85;1.25;;;;;;;32.95;10.71;98832.75;4991400;28;20041;-42
2022/05/11 07:40:00;;;;;;;9.57;2.38;;;;;;;33.25;10.31;98835.69;4982668;28;20042;-42
2022/05/11 07:42:27;;;;;;;3.40;3.00;;;;;;;33.51;10.17;98829.25;4989102;28;20046;-42
2022/05/11 07:44:53;;;;;;;19.50;11.73;;;;;;;33.70;10.54;98822.91;4990136;28;20133;-42
2022/05/11 07:47:20;;;;;;;7.82;2.58;;;;;;;33.84;10.30;98829.81;4990742;28;20126;-41
2022/05/11 07:49:46;;;;;;;8.38;1.77;;;;;;;33.74;10.29;98823.28;4991288;28;20077;-41
2022/05/11 07:52:12;;;;;;;11.90;1.90;;;;;;;33.28;10.73;98812.88;4990482;28;20046;-43
2022/05/11 07:54:40;;;;;;;6.07;1.70;;;;;;;33.18;10.68;98816.06;4991926;28;20421;-42
2022/05/11 07:59:59;;;;;;;5.25;1.48;;;;;;;33.14;10.70;98810.22;4990637;28;20045;-41
2022/05/11 08:02:43;;;;;;;7.18;1.88;;;;;;;32.77;11.38;98795.78;4988793;28;20100;-41
2022/05/11 08:05:11;;;;;;;3.55;1.60;;;;;;;32.10;11.65;98800.78;4988598;28;20038;-41
2022/05/11 08:07:40;;;;;;;7.00;2.80;;;;;;;31.34;11.95;98795.94;4986730;28;20077;-41
2022/05/11 08:10:07;;;;;;;4.68;2.08;;;;;;;30.65;11.96;98792.72;4988641;28;20082;-41
2022/05/11 08:12:33;;;;;;;6.25;2.10;;;;;;;30.17;12.58;98779.34;4990304;28;20133;-42
2022/05/11 08:14:59;;;;;;;6.30;1.50;;;;;;;29.77;13.00;98785.50;4990104;28;20138;-42
2022/05/11 08:17:30;;;;;;;10.13;1.60;;;;;;;29.14;13.38;98784.59;4989496;28;20034;-41
2022/05/11 08:19:57;;;;;;;5.28;1.40;;;;;;;28.36;13.91;98774.72;4989995;28;20038;-40
2022/05/11 08:22:24;;;;;;;3.33;1.20;;;;;;;27.66;14.27;98769.84;4989248;28;20049;-42
2022/05/11 08:24:51;;;;;;;7.57;1.88;;;;;;;27.25;14.52;98779.25;4973650;28;20087;-42
2022/05/11 08:27:20;;;;;;;5.72;1.45;;;;;;;27.02;14.60;98781.94;4990052;28;20510;-43
2022/05/11 08:35:16;;;;;;;7.55;1.40;;;;;;;26.03;15.33;98761.31;4990870;28;20042;-43
2022/05/11 08:37:43;;;;;;;5.53;2.45;;;;;;;25.75;15.44;98740.66;4990798;28;20046;-41
2022/05/11 08:40:29;;;;;;;3.78;1.25;;;;;;;25.74;15.58;98745.13;4990799;28;20046;-40
2022/05/11 08:42:55;;;;;;;9.70;2.03;;;;;;;25.79;15.70;98765.94;4970069;28;20070;-41
2022/05/11 08:45:22;;;;;;;5.10;1.83;;;;;;;25.69;15.67;98771.44;4969972;28;20109;-42
2022/05/11 08:47:48;;;;;;;10.75;2.15;;;;;;;25.25;15.80;98750.53;4972309;28;20069;-41
2022/05/11 08:50:20;;;;;;;16.67;4.28;;;;;;;25.17;16.43;98771.00;4988036;28;20042;-41
2022/05/11 08:52:52;;;;;;;5.32;1.42;;;;;;;24.76;16.55;98765.63;4971518;28;20034;-40
2022/05/11 08:55:33;;;;;;;13.45;3.63;;;;;;;24.33;16.74;98765.91;4988011;28;20430;-41
2022/05/11 08:58:04;;;;;;;9.07;3.85;;;;;;;24.05;16.90;98767.94;4988353;28;20149;-41
2022/05/11 09:00:30;;;;;;;3.45;1.38;;;;;;;23.92;17.07;98760.41;4990155;28;20052;-44
2022/05/11 09:03:01;;;;;;;12.65;5.15;;;;;;;24.06;17.16;98770.44;4989650;28;20514;-41
2022/05/11 09:05:29;;;;;;;4.28;1.70;;;;;;;24.06;17.07;98756.31;4990665;28;20042;-42
2022/05/11 09:07:56;;;;;;;7.53;1.35;;;;;;;24.07;17.03;98750.03;4973907;28;20046;-40
2022/05/11 09:10:31;;;;;;;2.85;1.73;;;;;;;24.11;17.10;98755.84;4989889;28;20088;-40
2022/05/11 09:13:02;;;;;;;7.22;3.97;;;;;;;23.96;17.16;98758.28;4989567;28;20076;-41
2022/05/11 09:16:05;;;;;;;6.22;1.40;;;;;;;23.82;17.23;98754.38;4989991;28;20038;-41
2022/05/11 09:18:31;;;;;;;4.13;1.30;;;;;;;23.73;17.25;98746.53;4989775;28;20100;-40
2022/05/11 09:21:00;;;;;;;7.00;1.60;;;;;;;23.51;17.40;98753.22;4990518;28;20045;-41
2022/05/11 09:23:38;;;;;;;9.23;1.70;;;;;;;23.32;17.58;98751.59;4989454;28;20045;-40
2022/05/11 09:26:07;;;;;;;2.20;1.00;;;;;;;23.25;17.66;98739.94;4989573;28;20506;-40
2022/05/11 09:28:35;;;;;;;6.90;1.92;;;;;;;23.21;17.63;98747.38;4988589;28;20438;-41
2022/05/11 09:31:10;;;;;;;5.25;1.42;;;;;;;23.31;17.60;98760.53;4989309;28;20069;-43
2022/05/11 09:33:38;;;;;;;9.23;1.52;;;;;;;23.19;17.55;98757.31;4989210;28;20045;-39
2022/05/11 09:36:06;;;;;;;7.13;1.65;;;;;;;22.99;17.94;98745.22;4989887;28;20126;-42
2022/05/11 09:38:36;;;;;;;4.30;1.00;;;;;;;22.95;17.91;98748.34;4955632;28;20133;-41
2022/05/11 09:41:07;;;;;;;8.38;1.75;;;;;;;22.96;18.17;98753.50;4988779;28;20046;-41
2022/05/11 09:43:41;;;;;;;7.32;1.60;;;;;;;22.88;18.30;98755.22;4988680;28;20054;-42
2022/05/11 09:46:29;;;;;;;8.85;2.08;;;;;;;22.79;18.50;98754.34;4988482;28;20532;-42
2022/05/11 09:49:06;;;;;;;4.63;1.25;;;;;;;22.76;18.48;98755.50;4988601;28;20081;-42
2022/05/11 09:51:34;;;;;;;10.98;1.70;;;;;;;22.72;18.34;98756.75;4989221;28;20049;-40
2022/05/11 09:54:18;;;;;;;3.42;1.33;;;;;;;22.76;18.41;98757.31;4989274;28;20072;-40
2022/05/11 09:56:56;;;;;;;4.88;1.70;;;;;;;22.87;18.43;98759.72;4981031;28;20049;-41
2022/05/11 09:59:25;;;;;;;3.53;1.25;;;;;;;22.93;18.49;98759.09;4975907;28;20398;-42
2022/05/11 10:02:34;;;;;;;5.57;1.25;;;;;;;22.96;18.30;98755.31;4990318;28;20422;-41
2022/05/11 10:05:06;;;;;;;6.45;1.70;;;;;;;23.00;18.42;98760.16;4964659;28;20081;-42
2022/05/11 10:07:55;;;;;;;5.65;1.27;;;;;;;23.16;18.44;98752.31;4990766;28;20042;-40
2022/05/11 10:10:54;;;;;;;5.25;1.30;;;;;;;23.45;18.12;98761.78;4990231;28;20074;-42
2022/05/11 10:13:58;;;;;;;4.47;1.52;;;;;;;23.73;18.13;98754.50;4988451;28;20086;-40
2022/05/11 10:22:11;;;;;;;7.13;2.00;;;;;;;24.15;18.48;98752.69;4959807;28;20038;-40
2022/05/11 10:24:40;;;;;;;10.10;1.80;;;;;;;24.43;18.30;98753.31;4981177;28;20489;-41
2022/05/11 10:27:18;;;;;;;6.80;3.40;;;;;;;24.65;18.24;98749.19;4975254;28;20572;-42
2022/05/11 10:30:24;;;;;;;11.30;2.05;;;;;;;24.62;18.34;98752.16;4992354;28;20092;-41
2022/05/11 10:33:11;;;;;;;14.65;2.10;;;;;;;24.57;18.81;98744.69;4895758;29;20059;-40
2022/05/11 10:35:57;;;;;;;4.28;1.48;;;;;;;24.53;18.56;98747.84;4912383;29;20455;-40
2022/05/11 10:38:54;;;;;;;9.48;3.80;;;;;;;24.48;18.66;98743.03;4880166;29;20182;-41
2022/05/11 10:41:43;;;;;;;4.15;1.50;;;;;;;24.71;18.75;98746.69;4911104;29;20067;-40
2022/05/11 10:44:27;;;;;;;6.05;1.40;;;;;;;25.01;18.68;98737.28;4898508;29;20142;-40
2022/05/11 10:47:08;;;;;;;3.35;1.40;;;;;;;25.43;17.95;98755.69;4913862;29;20047;-41
2022/05/11 10:49:43;;;;;;;6.13;1.63;;;;;;;25.66;18.06;98748.66;4913875;29;20055;-40
2022/05/11 10:52:27;;;;;;;6.97;1.85;;;;;;;25.65;18.18;98741.66;4909412;29;20127;-40
2022/05/11 10:55:02;;;;;;;6.70;1.92;;;;;;;25.49;17.80;98728.34;4913885;29;20036;-41
2022/05/11 10:57:53;;;;;;;5.53;1.73;;;;;;;25.43;18.08;98721.09;4910956;29;20071;-41
2022/05/11 11:00:21;;;;;;;8.52;2.40;;;;;;;25.58;17.85;98718.56;4899553;29;20144;-39
2022/05/11 11:03:14;;;;;;;9.05;1.70;;;;;;;25.99;18.08;98727.22;4909387;28;20137;-40
2022/05/11 11:12:00;;;;;;;4.10;1.40;;;;;;;27.17;16.69;98705.41;4990406;28;20510;-41
2022/05/11 11:14:32;;;;;;;5.53;1.60;;;;;;;28.22;16.13;98720.25;4988552;28;20034;-40
2022/05/11 11:17:01;;;;;;;4.38;1.55;;;;;;;29.00;15.46;98711.34;4989927;28;20046;-41
2022/05/11 11:19:27;;;;;;;4.20;2.47;;;;;;;29.77;15.18;98700.56;4989672;28;20488;-40
2022/05/11 11:21:55;;;;;;;9.40;2.10;;;;;;;30.88;14.41;98711.84;4991665;28;20072;-41
2022/05/11 11:24:24;;;;;;;9.80;5.57;;;;;;;31.74;14.14;98721.50;4990370;28;20038;-41
2022/05/11 11:26:50;;;;;;;4.03;2.38;;;;;;;31.98;13.46;98711.06;4991475;28;20437;-41
2022/05/11 11:29:20;;;;;;;5.95;2.08;;;;;;;32.65;13.06;98707.84;4991316;28;20521;-40
2022/05/11 11:32:05;;;;;;;3.38;1.90;;;;;;;33.37;12.53;98712.66;4991970;28;20061;-41
2022/05/11 11:34:33;;;;;;;5.38;1.88;;;;;;;33.89;12.41;98700.50;4988936;28;20034;-41
2022/05/11 11:37:25;;;;;;;5.53;2.30;;;;;;;34.47;11.90;98704.53;4984654;28;20042;-41
2022/05/11 11:40:15;;;;;;;8.70;1.90;;;;;;;34.55;11.68;98694.22;4974212;28;20403;-41
2022/05/11 11:42:44;;;;;;;5.53;2.03;;;;;;;34.84;11.59;98692.56;4973076;28;20426;-40
2022/05/11 11:45:26;;;;;;;4.97;1.50;;;;;;;35.08;11.25;98686.09;4977052;28;20042;-42
2022/05/11 11:48:15;;;;;;;5.78;1.98;;;;;;;35.61;11.24;98683.28;4991117;28;20039;-41
2022/05/11 11:50:58;;;;;;;4.55;1.80;;;;;;;36.17;11.03;98686.38;4990827;28;20045;-41
2022/05/11 11:53:59;;;;;;;3.95;1.80;;;;;;;36.41;10.55;98696.00;4979105;28;20069;-41
2022/05/11 11:56:28;;;;;;;3.17;1.98;;;;;;;36.68;10.18;98682.69;4954983;28;20054;-41
2022/05/11 11:59:09;;;;;;;2.13;1.30;;;;;;;35.33;10.28;98653.44;4991466;28;20536;-42
2022/05/11 12:01:46;;;;;;;3.35;1.40;;;;;;;33.86;11.34;98665.91;4984832;28;20073;-39
2022/05/11 12:04:21;;;;;;;7.38;4.28;;;;;;;33.01;11.94;98672.16;4973470;28;20141;-40
2022/05/11 12:15:31;;;;;;;3.70;1.73;;;;;;;36.23;10.26;98669.13;4974765;28;20049;-41
2022/05/11 12:17:57;;;;;;;6.75;2.13;;;;;;;36.24;10.25;98663.47;4958228;28;20104;-41
2022/05/11 12:20:23;;;;;;;8.77;2.40;;;;;;;36.62;10.49;98657.41;4985431;28;20096;-40
2022/05/11 12:22:52;;;;;;;9.77;1.90;;;;;;;36.73;9.89;98659.22;4968791;28;20065;-42
2022/05/11 12:25:20;;;;;;;4.75;2.05;;;;;;;36.01;10.09;98655.44;4987433;28;20059;-43
2022/05/11 12:27:46;;;;;;;9.40;1.95;;;;;;;35.08;10.61;98645.56;4987814;28;20694;-42
2022/05/11 12:30:22;;;;;;;22.42;3.47;;;;;;;35.06;11.14;98650.41;4989899;28;20514;-42
2022/05/11 12:32:51;;;;;;;9.63;2.92;;;;;;;35.86;10.63;98653.25;4990185;28;20046;-43